createdAt,value
2019-02-06T00:00:55.510Z,23.10
2019-02-06T00:03:36.990Z,24.23
2019-02-06T00:06:17.744Z,23.53
2019-02-06T00:08:59.294Z,21.67
2019-02-06T00:11:40.488Z,24.57
2019-02-06T00:14:21.790Z,21.47
2019-02-06T00:17:03.277Z,18.63
2019-02-06T00:19:44.563Z,24.03
2019-02-06T00:22:25.390Z,22.00
2019-02-06T00:25:06.820Z,23.50
2019-02-06T00:27:47.540Z,21.93
2019-02-06T00:30:28.950Z,20.73
2019-02-06T00:33:10.081Z,21.13
2019-02-06T00:35:51.580Z,22.70
2019-02-06T00:38:33.025Z,22.67
2019-02-06T00:41:14.594Z,22.50
2019-02-06T00:43:55.271Z,21.57
2019-02-06T00:46:36.688Z,23.57
2019-02-06T00:49:18.070Z,24.00
2019-02-06T00:51:59.629Z,22.60
2019-02-06T00:54:41.141Z,24.43
2019-02-06T00:57:22.581Z,23.97
2019-02-06T01:00:04.061Z,23.43
2019-02-06T01:02:45.315Z,24.83
2019-02-06T01:05:37.510Z,24.53
2019-02-06T01:08:15.826Z,24.23
2019-02-06T01:10:45.416Z,23.20
2019-02-06T01:13:34.103Z,23.13
2019-02-06T01:16:15.697Z,23.13
2019-02-06T01:18:57.241Z,22.53
2019-02-06T01:21:38.638Z,20.97
2019-02-06T01:24:20.331Z,21.93
2019-02-06T01:27:01.469Z,21.63
2019-02-06T01:29:42.413Z,21.87
2019-02-06T01:32:21.965Z,21.97
2019-02-06T01:38:01.688Z,20.50
2019-02-06T01:40:42.765Z,19.47
2019-02-06T01:43:24.358Z,18.77
2019-02-06T01:46:05.617Z,19.37
2019-02-06T01:48:46.721Z,19.30
2019-02-06T01:51:27.596Z,21.37
2019-02-06T01:54:08.935Z,21.80
2019-02-06T01:56:50.555Z,20.23
2019-02-06T01:59:32.097Z,21.27
2019-02-06T02:02:13.573Z,22.10
2019-02-06T02:04:54.452Z,20.00
2019-02-06T02:07:35.981Z,20.67
2019-02-06T02:10:17.188Z,21.67
2019-02-06T02:12:58.884Z,21.20
2019-02-06T02:15:39.965Z,21.43
2019-02-06T02:18:20.035Z,21.57
2019-02-06T02:21:00.875Z,20.03
2019-02-06T02:23:42.358Z,21.63
2019-02-06T02:26:21.947Z,20.60
2019-02-06T02:32:12.129Z,19.50
2019-02-06T02:34:53.532Z,19.97
2019-02-06T02:37:35.042Z,19.57
2019-02-06T02:40:15.709Z,20.27
2019-02-06T02:42:57.291Z,20.03
2019-02-06T02:45:38.702Z,20.57
2019-02-06T02:48:19.855Z,17.97
2019-02-06T02:51:01.014Z,19.43
2019-02-06T02:53:42.490Z,18.53
2019-02-06T02:56:23.569Z,18.93
2019-02-06T02:59:04.533Z,18.17
2019-02-06T03:05:07.679Z,18.93
2019-02-06T03:10:34.126Z,18.33
2019-02-06T03:13:15.315Z,18.43
2019-02-06T03:15:56.728Z,18.63
2019-02-06T03:18:38.123Z,18.80
2019-02-06T03:21:19.524Z,18.70
2019-02-06T03:24:00.652Z,17.50
2019-02-06T03:26:42.079Z,19.40
2019-02-06T03:29:23.366Z,18.90
2019-02-06T03:32:04.784Z,19.20
2019-02-06T03:34:46.192Z,18.83
2019-02-06T03:37:28.044Z,19.47
2019-02-06T03:40:09.512Z,19.63
2019-02-06T03:42:50.223Z,18.83
2019-02-06T03:45:31.869Z,17.43
2019-02-06T03:48:13.287Z,18.37
2019-02-06T03:50:53.308Z,17.53
2019-02-06T03:53:35.013Z,17.37
2019-02-06T03:56:16.689Z,17.03
2019-02-06T03:58:57.718Z,17.07
2019-02-06T04:01:39.157Z,16.03
2019-02-06T04:04:20.583Z,15.67
2019-02-06T04:07:02.280Z,15.30
2019-02-06T04:09:43.940Z,16.77
2019-02-06T04:12:25.468Z,14.77
2019-02-06T04:15:05.719Z,15.03
2019-02-06T04:20:54.836Z,15.53
2019-02-06T04:23:36.030Z,14.80
2019-02-06T04:26:16.766Z,14.63
2019-02-06T04:28:58.036Z,15.50
2019-02-06T04:31:38.721Z,15.00
2019-02-06T04:34:20.079Z,15.80
2019-02-06T04:37:06.803Z,15.47
2019-02-06T04:39:44.471Z,15.07
2019-02-06T04:42:26.045Z,14.90
2019-02-06T04:45:05.860Z,14.90
2019-02-06T04:47:47.161Z,14.00
2019-02-06T04:50:27.879Z,14.00
2019-02-06T04:53:09.509Z,14.60
2019-02-06T04:55:50.718Z,15.03
2019-02-06T04:58:32.134Z,14.90
2019-02-06T05:01:13.533Z,14.60
2019-02-06T05:03:54.518Z,15.43
2019-02-06T05:06:35.834Z,14.50
2019-02-06T05:09:17.337Z,13.30
2019-02-06T05:11:58.955Z,13.83
2019-02-06T05:14:39.874Z,13.40
2019-02-06T05:17:20.598Z,14.77
2019-02-06T05:20:02.138Z,13.20
2019-02-06T05:22:43.436Z,13.33
2019-02-06T05:25:24.703Z,11.67
2019-02-06T05:28:06.035Z,10.53
2019-02-06T05:30:47.487Z,10.87
2019-02-06T05:33:28.922Z,11.40
2019-02-06T05:36:10.488Z,11.50
2019-02-06T05:38:52.001Z,11.80
2019-02-06T05:41:33.470Z,13.27
2019-02-06T05:44:14.823Z,13.93
2019-02-06T05:46:56.116Z,12.87
2019-02-06T05:49:37.618Z,13.47
2019-02-06T05:52:18.485Z,12.53
2019-02-06T05:54:59.719Z,11.43
2019-02-06T05:57:40.565Z,12.10
2019-02-06T06:00:24.092Z,13.23
2019-02-06T06:03:05.897Z,13.40
2019-02-06T06:05:47.498Z,13.03
2019-02-06T06:08:28.160Z,12.57
2019-02-06T06:11:09.382Z,13.13
2019-02-06T06:13:50.186Z,11.80
2019-02-06T06:16:31.781Z,12.13
2019-02-06T06:19:13.314Z,12.30
2019-02-06T06:21:54.918Z,12.10
2019-02-06T06:24:36.474Z,12.10
2019-02-06T06:27:17.285Z,12.03
2019-02-06T06:29:58.834Z,12.83
2019-02-06T06:32:40.028Z,12.87
2019-02-06T06:35:21.521Z,14.43
2019-02-06T06:38:02.700Z,14.60
2019-02-06T06:40:43.548Z,14.73
2019-02-06T06:43:23.481Z,15.13
2019-02-06T06:46:04.237Z,16.37
2019-02-06T06:48:44.158Z,16.93
2019-02-06T06:51:24.861Z,17.37
2019-02-06T06:54:06.369Z,17.23
2019-02-06T06:56:46.328Z,18.70
2019-02-06T07:02:40.213Z,18.00
2019-02-06T07:05:21.666Z,16.47
2019-02-06T07:08:09.634Z,17.87
2019-02-06T07:10:46.542Z,18.17
2019-02-06T07:13:27.576Z,16.63
2019-02-06T07:16:08.800Z,18.27
2019-02-06T07:18:49.871Z,17.43
2019-02-06T07:21:31.050Z,15.93
2019-02-06T07:24:12.430Z,12.97
2019-02-06T07:26:54.017Z,14.93
2019-02-06T07:29:35.409Z,17.20
2019-02-06T07:32:17.061Z,17.10
2019-02-06T07:34:56.631Z,17.23
2019-02-06T07:40:44.941Z,16.33
2019-02-06T07:43:26.351Z,15.57
2019-02-06T07:46:07.566Z,15.77
2019-02-06T07:48:49.111Z,16.83
2019-02-06T07:51:29.874Z,16.50
2019-02-06T07:54:11.374Z,16.80
2019-02-06T07:56:52.330Z,16.43
2019-02-06T07:59:32.521Z,16.83
2019-02-06T08:02:13.306Z,16.20
2019-02-06T08:04:54.125Z,16.47
2019-02-06T08:07:35.488Z,17.13
2019-02-06T08:10:16.566Z,16.43
2019-02-06T08:12:57.384Z,17.10
2019-02-06T08:15:38.745Z,17.57
2019-02-06T08:18:19.960Z,17.43
2019-02-06T08:21:01.394Z,16.77
2019-02-06T08:23:42.738Z,18.60
2019-02-06T08:26:24.258Z,16.30
2019-02-06T08:29:05.728Z,21.20
2019-02-06T08:31:46.564Z,22.63
2019-02-06T08:34:27.577Z,23.80
2019-02-06T08:37:07.224Z,20.47
2019-02-06T08:39:48.744Z,23.47
2019-02-06T08:42:30.042Z,24.53
2019-02-06T08:45:11.613Z,21.13
2019-02-06T08:47:53.025Z,22.47
2019-02-06T08:50:34.583Z,19.87
2019-02-06T08:53:16.002Z,14.10
2019-02-06T08:55:57.149Z,11.97
2019-02-06T08:58:38.519Z,11.50
2019-02-06T09:01:19.465Z,11.30
2019-02-06T09:04:00.994Z,11.63
2019-02-06T09:06:41.733Z,9.60
2019-02-06T09:09:21.975Z,11.07
2019-02-06T09:12:03.084Z,9.80
2019-02-06T09:14:44.194Z,9.53
2019-02-06T09:17:25.023Z,9.13
2019-02-06T09:20:06.500Z,9.20
2019-02-06T09:22:48.181Z,9.40
2019-02-06T09:25:29.468Z,8.77
2019-02-06T09:28:10.796Z,8.83
2019-02-06T09:30:52.222Z,8.57
2019-02-06T09:33:33.487Z,8.93
2019-02-06T09:36:14.131Z,7.70
2019-02-06T09:38:55.682Z,8.27
2019-02-06T09:41:36.887Z,8.23
2019-02-06T09:44:18.157Z,6.97
2019-02-06T09:46:59.387Z,7.50
2019-02-06T09:49:41.709Z,7.27
2019-02-06T09:52:25.679Z,7.10
2019-02-06T09:55:05.192Z,7.33
2019-02-06T09:57:45.818Z,7.17
2019-02-06T10:00:29.468Z,6.83
2019-02-06T10:03:18.156Z,7.27
2019-02-06T10:05:59.236Z,7.20
2019-02-06T10:08:40.321Z,6.50
2019-02-06T10:11:21.751Z,6.33
2019-02-06T10:14:01.505Z,6.13
2019-02-06T10:16:42.780Z,6.33
2019-02-06T10:19:24.287Z,6.17
2019-02-06T10:22:05.342Z,6.40
2019-02-06T10:24:46.140Z,6.50
2019-02-06T10:27:27.151Z,6.60
2019-02-06T10:30:07.945Z,6.13
2019-02-06T10:32:47.506Z,7.00
2019-02-06T10:38:38.473Z,5.93
2019-02-06T10:41:19.865Z,7.13
2019-02-06T10:44:00.523Z,6.83
2019-02-06T10:46:42.879Z,5.97
2019-02-06T10:49:24.296Z,6.93
2019-02-06T10:52:05.574Z,6.53
2019-02-06T10:54:46.628Z,6.33
2019-02-06T10:57:27.994Z,6.50
2019-02-06T11:00:09.358Z,6.57
2019-02-06T11:02:50.035Z,6.40
2019-02-06T11:05:31.442Z,6.50
2019-02-06T11:08:12.881Z,5.60
2019-02-06T11:10:54.412Z,5.10
2019-02-06T11:13:35.108Z,5.10
2019-02-06T11:16:16.720Z,5.40
2019-02-06T11:18:58.279Z,5.37
2019-02-06T11:21:39.335Z,5.40
2019-02-06T11:24:20.790Z,5.30
2019-02-06T11:27:02.006Z,5.73
2019-02-06T11:29:43.180Z,5.67
2019-02-06T11:32:23.982Z,5.50
2019-02-06T11:35:05.188Z,5.70
2019-02-06T11:37:46.475Z,5.30
2019-02-06T11:40:27.930Z,5.17
2019-02-06T11:43:08.812Z,5.70
2019-02-06T11:45:50.108Z,5.90
2019-02-06T11:48:31.395Z,5.83
2019-02-06T11:51:12.772Z,6.03
2019-02-06T11:53:54.348Z,6.60
2019-02-06T11:56:35.888Z,5.73
2019-02-06T11:59:15.894Z,6.07
2019-02-06T12:02:04.666Z,6.07
2019-02-06T12:04:47.848Z,5.80
2019-02-06T12:07:29.137Z,6.40
2019-02-06T12:10:10.646Z,6.37
2019-02-06T12:12:51.438Z,5.37
2019-02-06T12:15:32.346Z,5.40
2019-02-06T12:18:12.995Z,5.23
2019-02-06T12:20:52.554Z,5.47
2019-02-06T12:26:47.269Z,5.77
2019-02-06T12:29:28.669Z,6.00
2019-02-06T12:32:10.218Z,5.63
2019-02-06T12:34:50.988Z,6.00
2019-02-06T12:37:32.338Z,5.93
2019-02-06T12:40:21.051Z,5.63
2019-02-06T12:42:56.265Z,5.77
2019-02-06T12:45:35.999Z,5.67
2019-02-06T12:48:17.110Z,5.50
2019-02-06T12:50:58.420Z,6.40
2019-02-06T12:53:40.072Z,5.70
2019-02-06T12:56:21.641Z,6.07
2019-02-06T12:59:02.942Z,6.13
2019-02-06T13:01:44.114Z,5.57
2019-02-06T13:04:25.550Z,5.87
2019-02-06T13:07:06.943Z,5.50
2019-02-06T13:09:48.345Z,5.57
2019-02-06T13:12:29.650Z,5.73
2019-02-06T13:15:10.962Z,6.10
2019-02-06T13:17:52.193Z,5.40
2019-02-06T13:20:33.182Z,6.00
2019-02-06T13:23:14.307Z,5.70
2019-02-06T13:25:55.112Z,6.03
2019-02-06T13:28:36.591Z,5.90
2019-02-06T13:31:17.842Z,5.63
2019-02-06T13:33:59.242Z,5.40
2019-02-06T13:36:40.766Z,5.80
2019-02-06T13:39:22.123Z,6.10
2019-02-06T13:42:05.306Z,5.87
2019-02-06T13:44:52.421Z,5.43
2019-02-06T13:47:33.658Z,5.67
2019-02-06T13:50:22.092Z,5.17
2019-02-06T13:52:58.499Z,5.60
2019-02-06T13:55:39.926Z,5.77
2019-02-06T13:58:21.194Z,5.77
2019-02-06T14:01:02.629Z,5.60
2019-02-06T14:03:43.984Z,5.60
2019-02-06T14:06:25.558Z,6.10
2019-02-06T14:09:08.422Z,4.83
2019-02-06T14:15:02.265Z,6.30
2019-02-06T14:17:43.618Z,6.20
2019-02-06T14:20:25.045Z,6.00
2019-02-06T14:23:06.482Z,6.43
2019-02-06T14:25:47.134Z,6.27
2019-02-06T14:28:28.676Z,6.17
2019-02-06T14:31:09.444Z,6.47
2019-02-06T14:33:51.028Z,5.93
2019-02-06T14:36:32.390Z,6.50
2019-02-06T14:39:13.775Z,6.37
2019-02-06T14:41:55.593Z,6.43
2019-02-06T14:44:36.835Z,7.03
2019-02-06T14:51:01.289Z,7.40
2019-02-06T14:56:43.175Z,7.23
2019-02-06T14:59:25.599Z,7.10
2019-02-06T15:02:06.642Z,7.57
2019-02-06T15:04:48.146Z,7.90
2019-02-06T15:07:55.912Z,7.13
2019-02-06T15:10:48.750Z,7.17
2019-02-06T15:13:29.553Z,6.30
2019-02-06T15:16:10.869Z,7.20
2019-02-06T15:18:52.367Z,7.00
2019-02-06T15:21:33.930Z,7.20
2019-02-06T15:24:14.753Z,6.93
2019-02-06T15:26:56.046Z,6.47
2019-02-06T15:29:37.295Z,6.07
2019-02-06T15:32:18.975Z,5.60
2019-02-06T15:35:00.523Z,5.83
2019-02-06T15:37:41.805Z,6.67
2019-02-06T15:40:22.902Z,6.53
2019-02-06T15:43:04.500Z,6.60
2019-02-06T15:45:46.177Z,5.47
2019-02-06T15:48:27.622Z,5.87
2019-02-06T15:51:09.178Z,5.27
2019-02-06T15:53:50.568Z,5.27
2019-02-06T15:56:31.297Z,5.80
2019-02-06T15:59:12.587Z,5.40
2019-02-06T16:01:53.911Z,4.90
2019-02-06T16:04:57.422Z,5.37
2019-02-06T16:07:38.784Z,5.00
2019-02-06T16:10:20.091Z,4.53
2019-02-06T16:13:00.849Z,5.03
2019-02-06T16:15:40.978Z,5.20
2019-02-06T16:18:21.090Z,5.07
2019-02-06T16:21:01.401Z,5.33
2019-02-06T16:23:43.002Z,5.37
2019-02-06T16:26:23.925Z,5.20
2019-02-06T16:29:04.575Z,4.77
2019-02-06T16:31:44.775Z,4.90
2019-02-06T16:34:25.169Z,4.80
2019-02-06T16:37:03.598Z,5.30
2019-02-06T17:12:28.053Z,8.67
2019-02-06T17:15:08.874Z,8.40
2019-02-06T17:17:50.018Z,7.00
2019-02-06T17:20:31.120Z,6.97
2019-02-06T17:23:12.335Z,5.60
2019-02-06T17:25:53.552Z,5.97
2019-02-06T17:28:34.988Z,5.57
2019-02-06T17:31:16.074Z,5.70
2019-02-06T17:33:57.540Z,5.50
2019-02-06T17:36:38.864Z,6.00
2019-02-06T17:39:24.138Z,6.20
2019-02-06T17:42:02.424Z,5.83
2019-02-06T17:44:43.614Z,6.23
2019-02-06T17:47:25.028Z,6.47
2019-02-06T17:50:05.862Z,6.57
2019-02-06T17:52:46.936Z,6.63
2019-02-06T17:55:28.703Z,7.13
2019-02-06T17:58:10.208Z,7.23
2019-02-06T18:00:51.337Z,7.60
2019-02-06T18:03:32.442Z,8.40
2019-02-06T18:06:13.207Z,10.03
2019-02-06T18:08:56.711Z,9.80
2019-02-06T18:11:37.287Z,10.50
2019-02-06T18:14:18.073Z,10.67
2019-02-06T18:16:59.099Z,9.57
2019-02-06T18:19:39.820Z,9.93
2019-02-06T18:22:22.601Z,11.10
2019-02-06T18:25:03.354Z,11.50
2019-02-06T18:27:44.512Z,11.03
2019-02-06T18:30:26.127Z,11.40
2019-02-06T18:33:07.676Z,10.00
2019-02-06T18:35:49.276Z,11.27
2019-02-06T18:38:28.902Z,10.80
2019-02-06T18:41:17.600Z,9.47
2019-02-06T18:43:58.470Z,9.37
2019-02-06T18:46:39.862Z,8.83
2019-02-06T18:49:20.946Z,8.77
2019-02-06T18:52:02.301Z,8.77
2019-02-06T18:54:43.778Z,8.70
2019-02-06T18:57:25.369Z,8.23
2019-02-06T19:00:06.871Z,9.37
2019-02-06T19:02:48.214Z,8.80
2019-02-06T19:05:29.839Z,8.33
2019-02-06T19:08:11.158Z,9.37
2019-02-06T19:10:52.115Z,9.80
2019-02-06T19:13:33.747Z,10.67
2019-02-06T19:16:14.740Z,10.87
2019-02-06T19:18:56.164Z,11.40
2019-02-06T19:21:37.862Z,12.03
2019-02-06T19:24:19.571Z,12.40
2019-02-06T19:27:00.915Z,10.90
2019-02-06T19:29:42.239Z,9.63
2019-02-06T19:32:23.883Z,9.27
2019-02-06T19:35:05.333Z,8.80
2019-02-06T19:37:48.419Z,8.97
2019-02-06T19:40:29.665Z,9.03
2019-02-06T19:43:11.087Z,11.13
2019-02-06T19:45:52.790Z,11.07
2019-02-06T19:48:34.109Z,11.37
2019-02-06T19:51:15.781Z,12.07
2019-02-06T19:53:57.368Z,11.37
2019-02-06T19:56:42.002Z,10.60
2019-02-06T19:59:23.362Z,12.73
2019-02-06T20:02:05.101Z,12.53
2019-02-06T20:04:46.983Z,13.17
2019-02-06T20:07:29.026Z,14.30
2019-02-06T20:10:10.471Z,14.50
2019-02-06T20:12:52.246Z,14.47
2019-02-06T20:15:33.581Z,13.80
2019-02-06T20:18:15.205Z,13.37
2019-02-06T20:20:56.144Z,13.60
2019-02-06T20:26:47.596Z,14.27
2019-02-06T20:29:29.288Z,14.50
2019-02-06T20:32:10.543Z,15.73
2019-02-06T20:34:51.616Z,14.87
2019-02-06T20:37:32.962Z,16.03
2019-02-06T20:40:14.582Z,16.23
2019-02-06T20:42:55.966Z,14.93
2019-02-06T20:45:37.484Z,13.37
2019-02-06T20:48:18.907Z,15.97
2019-02-06T20:51:00.777Z,16.47
2019-02-06T20:53:42.162Z,17.10
2019-02-06T20:56:23.334Z,17.03
2019-02-06T20:59:04.952Z,17.30
2019-02-06T21:01:46.404Z,16.30
2019-02-06T21:04:27.858Z,17.50
2019-02-06T21:07:09.399Z,19.17
2019-02-06T21:09:51.043Z,19.13
2019-02-06T21:12:32.276Z,20.23
2019-02-06T21:15:13.509Z,19.53
2019-02-06T21:17:54.557Z,19.57
2019-02-06T21:20:35.744Z,18.70
2019-02-06T21:23:17.396Z,18.87
2019-02-06T21:25:58.278Z,18.83
2019-02-06T21:28:39.108Z,19.43
2019-02-06T21:31:20.421Z,18.63
2019-02-06T21:34:01.829Z,19.03
2019-02-06T21:36:42.818Z,20.00
2019-02-06T21:39:23.950Z,18.37
2019-02-06T21:42:05.410Z,19.90
2019-02-06T21:44:46.804Z,20.37
2019-02-06T21:47:28.244Z,19.73
2019-02-06T21:50:08.948Z,20.70
2019-02-06T21:52:50.296Z,21.23
2019-02-06T21:55:31.675Z,21.80
2019-02-06T21:58:12.720Z,22.53
2019-02-06T22:00:54.088Z,21.40
2019-02-06T22:03:35.411Z,22.87
2019-02-06T22:06:16.722Z,23.20
2019-02-06T22:08:57.453Z,22.43
2019-02-06T22:11:38.614Z,21.50
2019-02-06T22:14:20.197Z,21.57
2019-02-06T22:17:01.524Z,20.97
2019-02-06T22:19:42.497Z,21.93
2019-02-06T22:22:24.020Z,23.07
2019-02-06T22:25:04.122Z,21.70
2019-02-06T22:30:52.752Z,23.13
2019-02-06T22:33:34.193Z,21.47
2019-02-06T22:36:14.884Z,21.63
2019-02-06T22:38:56.328Z,23.23
2019-02-06T22:41:37.672Z,22.67
2019-02-06T22:44:18.349Z,22.57
2019-02-06T22:46:59.579Z,22.60
2019-02-06T22:49:41.062Z,23.23
2019-02-06T22:52:22.994Z,22.33
2019-02-06T22:55:04.840Z,20.60
2019-02-06T22:57:45.676Z,21.50
2019-02-06T23:00:28.242Z,22.37
2019-02-06T23:03:09.458Z,21.23
2019-02-06T23:05:50.818Z,19.70
2019-02-06T23:08:32.175Z,20.47
2019-02-06T23:11:13.735Z,20.23
2019-02-06T23:13:54.343Z,20.50
2019-02-06T23:16:33.869Z,19.90
2019-02-06T23:19:15.051Z,18.93
2019-02-06T23:21:56.495Z,20.73
2019-02-06T23:24:37.706Z,19.47
2019-02-06T23:27:19.114Z,18.53
2019-02-06T23:29:59.870Z,19.27
2019-02-06T23:32:41.117Z,19.03
2019-02-06T23:35:22.348Z,19.67
2019-02-06T23:38:03.726Z,18.47
2019-02-06T23:40:45.124Z,19.13
2019-02-06T23:43:26.104Z,18.67
2019-02-06T23:46:06.944Z,17.97
2019-02-06T23:48:48.123Z,18.57
2019-02-06T23:51:29.572Z,19.70
2019-02-06T23:54:10.255Z,18.33
2019-02-06T23:56:51.303Z,18.77
2019-02-06T23:59:32.478Z,18.80
